Kirtland, Ohio
Current Conditions -  °F | °C
As of 2:45 PM on Wednesday 17 Dec 2014 (Local Time) from KCGF Reporting Station
Overcast Overcast  
Wind Chill: 24°   Ceiling: 1400
Heat Index: 34°   Visibility: 10mi
Dew Point: 27°   Wind: 16mph
Humidity: 75%   Direction: 290°WNW
Pressure: 30.07"   Gusts: 25mph
Location:  41.5761°N, 81.1919°W
Report Text: KCGF 171945Z 29014G22KT 10SM BKN014 OVC022 01/M03 A3007
Loading
Personal Weather Stations






























Interactive Weather Map New forecast layout! Learn more

10-Day Weather Forecast

Advertisements
Track Severe Weather on mobile